createdAt,value
2018-05-13T00:00:20.974Z,0
2018-05-13T00:01:29.890Z,0
2018-05-13T00:02:38.753Z,0
2018-05-13T00:03:47.615Z,0
2018-05-13T00:04:56.479Z,0
2018-05-13T00:06:05.615Z,0
2018-05-13T00:07:14.829Z,0
2018-05-13T00:08:23.978Z,0
2018-05-13T00:09:33.405Z,0
2018-05-13T00:10:42.268Z,0
2018-05-13T00:11:51.132Z,0
2018-05-13T00:13:00.345Z,0
2018-05-13T00:14:09.493Z,0
2018-05-13T00:15:18.633Z,0
2018-05-13T00:16:27.495Z,0
2018-05-13T00:17:36.356Z,0
2018-05-13T00:18:45.215Z,0
2018-05-13T00:19:54.352Z,0
2018-05-13T00:21:03.219Z,0
2018-05-13T00:22:12.081Z,0
2018-05-13T00:23:21.219Z,0
2018-05-13T00:24:30.228Z,0
2018-05-13T00:25:39.093Z,0
2018-05-13T00:26:47.953Z,0
2018-05-13T00:27:56.813Z,0
2018-05-13T00:29:05.683Z,0
2018-05-13T00:30:14.815Z,0
2018-05-13T00:31:23.972Z,0
2018-05-13T00:32:32.830Z,0
2018-05-13T00:33:42.250Z,0
2018-05-13T00:34:51.110Z,0
2018-05-13T00:36:00.125Z,0
2018-05-13T00:37:08.985Z,0
2018-05-13T00:38:17.848Z,0
2018-05-13T00:39:26.709Z,0
2018-05-13T00:40:35.852Z,0
2018-05-13T00:41:44.765Z,0
2018-05-13T00:42:53.627Z,0
2018-05-13T00:44:02.489Z,0
2018-05-13T00:45:11.351Z,0
2018-05-13T00:46:20.493Z,0
2018-05-13T00:47:29.737Z,0
2018-05-13T00:48:38.601Z,0
2018-05-13T00:49:47.460Z,0
2018-05-13T00:50:56.321Z,0
2018-05-13T00:52:05.181Z,0
2018-05-13T00:53:14.191Z,0
2018-05-13T00:54:23.053Z,0
2018-05-13T00:55:32.200Z,0
2018-05-13T00:56:41.055Z,0
2018-05-13T00:57:49.913Z,0
2018-05-13T00:58:59.052Z,0
2018-05-13T01:00:07.913Z,0
2018-05-13T01:01:16.777Z,0
2018-05-13T01:02:25.914Z,0
2018-05-13T01:03:34.776Z,0
2018-05-13T01:04:43.743Z,0
2018-05-13T01:05:52.598Z,0
2018-05-13T01:07:02.032Z,0
2018-05-13T01:08:11.175Z,0
2018-05-13T01:09:20.033Z,0
2018-05-13T01:10:28.995Z,0
2018-05-13T01:11:38.138Z,0
2018-05-13T01:12:46.996Z,0
2018-05-13T01:13:55.858Z,0
2018-05-13T01:15:04.721Z,0
2018-05-13T01:16:13.957Z,0
2018-05-13T01:17:22.817Z,0
2018-05-13T01:18:31.962Z,0
2018-05-13T01:19:40.820Z,0
2018-05-13T01:20:49.957Z,0
2018-05-13T01:21:58.869Z,0
2018-05-13T01:23:07.732Z,0
2018-05-13T01:24:16.595Z,0
2018-05-13T01:25:25.457Z,0
2018-05-13T01:26:34.320Z,0
2018-05-13T01:27:43.282Z,0
2018-05-13T01:28:52.143Z,0
2018-05-13T01:30:01.280Z,0
2018-05-13T01:31:10.145Z,0
2018-05-13T01:32:19.003Z,0
2018-05-13T01:33:27.865Z,0
2018-05-13T01:34:36.726Z,0
2018-05-13T01:35:45.588Z,0
2018-05-13T01:36:54.449Z,0
2018-05-13T01:38:03.309Z,0
2018-05-13T01:39:12.550Z,0
2018-05-13T01:40:21.412Z,0
2018-05-13T01:41:30.274Z,0
2018-05-13T01:42:39.136Z,0
2018-05-13T01:43:47.996Z,0
2018-05-13T01:44:56.856Z,0
2018-05-13T01:46:06.003Z,0
2018-05-13T01:47:14.867Z,0
2018-05-13T01:48:23.722Z,0
2018-05-13T01:49:32.582Z,0
2018-05-13T01:50:41.821Z,0
2018-05-13T01:51:50.683Z,0
2018-05-13T01:52:59.546Z,0
2018-05-13T01:54:08.405Z,0
2018-05-13T01:55:17.263Z,0
2018-05-13T01:56:26.272Z,0
2018-05-13T01:57:35.136Z,0
2018-05-13T01:58:44.000Z,0
2018-05-13T01:59:52.862Z,0
2018-05-13T02:01:01.727Z,0
2018-05-13T02:02:10.584Z,0
2018-05-13T02:03:19.721Z,0
2018-05-13T02:04:28.581Z,0
2018-05-13T02:05:37.446Z,0
2018-05-13T02:06:46.301Z,0
2018-05-13T02:07:55.438Z,0
2018-05-13T02:09:04.300Z,0
2018-05-13T02:10:13.159Z,0
2018-05-13T02:11:22.580Z,0
2018-05-13T02:12:31.441Z,0
2018-05-13T02:13:40.454Z,0
2018-05-13T02:14:49.321Z,0
2018-05-13T02:15:58.175Z,0
2018-05-13T02:17:07.316Z,0
2018-05-13T02:18:16.456Z,0
2018-05-13T02:19:25.364Z,0
2018-05-13T02:20:34.229Z,0
2018-05-13T02:21:43.386Z,0
2018-05-13T02:22:52.246Z,0
2018-05-13T02:24:01.388Z,0
2018-05-13T02:25:10.251Z,0
2018-05-13T02:26:19.120Z,0
2018-05-13T02:27:27.975Z,0
2018-05-13T02:28:37.117Z,0
2018-05-13T02:29:45.981Z,0
2018-05-13T02:30:55.279Z,0
2018-05-13T02:32:04.137Z,0
2018-05-13T02:33:13.556Z,0
2018-05-13T02:34:22.695Z,0
2018-05-13T02:35:31.839Z,0
2018-05-13T02:36:41.077Z,0
2018-05-13T02:37:50.495Z,0
2018-05-13T02:38:59.637Z,0
2018-05-13T02:40:08.780Z,0
2018-05-13T02:41:17.641Z,0
2018-05-13T02:42:27.516Z,0
2018-05-13T02:43:36.671Z,0
2018-05-13T02:44:46.377Z,0
2018-05-13T02:45:55.237Z,0
2018-05-13T02:47:04.098Z,0
2018-05-13T02:48:13.107Z,0
2018-05-13T02:49:22.250Z,0
2018-05-13T02:50:31.672Z,0
2018-05-13T02:51:40.820Z,0
2018-05-13T02:52:50.249Z,0
2018-05-13T02:53:59.587Z,4
2018-05-13T02:55:08.745Z,0
2018-05-13T02:56:17.599Z,0
2018-05-13T02:57:26.805Z,4
2018-05-13T02:58:35.601Z,4
2018-05-13T02:59:44.844Z,0
2018-05-13T03:00:53.712Z,4
2018-05-13T03:02:03.137Z,8
2018-05-13T03:03:11.999Z,4
2018-05-13T03:04:21.698Z,4
2018-05-13T03:05:31.203Z,8
2018-05-13T03:06:40.069Z,8
2018-05-13T03:07:49.213Z,12
2018-05-13T03:08:58.350Z,12
2018-05-13T03:10:07.772Z,12
2018-05-13T03:11:16.632Z,16
2018-05-13T03:12:26.055Z,16
2018-05-13T03:13:35.189Z,20
2018-05-13T03:14:44.050Z,24
2018-05-13T03:15:53.192Z,24
2018-05-13T03:17:02.407Z,28
2018-05-13T03:18:11.272Z,32
2018-05-13T03:19:20.693Z,40
2018-05-13T03:20:29.604Z,44
2018-05-13T03:21:38.739Z,48
2018-05-13T03:22:47.748Z,56
2018-05-13T03:23:56.608Z,64
2018-05-13T03:25:05.469Z,72
2018-05-13T03:26:14.330Z,80
2018-05-13T03:27:23.190Z,92
2018-05-13T03:28:32.051Z,96
2018-05-13T03:29:40.911Z,108
2018-05-13T03:30:49.775Z,120
2018-05-13T03:31:59.198Z,128
2018-05-13T03:33:08.057Z,140
2018-05-13T03:34:17.168Z,152
2018-05-13T03:35:26.308Z,164
2018-05-13T03:36:35.449Z,176
2018-05-13T03:37:44.307Z,192
2018-05-13T03:38:53.168Z,204
2018-05-13T03:40:02.657Z,220
2018-05-13T03:41:11.516Z,236
2018-05-13T03:42:20.384Z,256
2018-05-13T03:43:29.524Z,268
2018-05-13T03:44:38.386Z,288
2018-05-13T03:45:47.296Z,308
2018-05-13T03:46:56.433Z,324
2018-05-13T03:48:05.296Z,344
2018-05-13T03:49:14.156Z,364
2018-05-13T03:50:23.015Z,384
2018-05-13T03:51:31.976Z,400
2018-05-13T03:52:40.837Z,420
2018-05-13T03:53:49.977Z,440
2018-05-13T03:54:58.838Z,460
2018-05-13T03:56:07.698Z,476
2018-05-13T03:57:16.709Z,500
2018-05-13T03:58:25.569Z,516
2018-05-13T03:59:34.712Z,532
2018-05-13T04:00:43.572Z,552
2018-05-13T04:01:52.434Z,572
2018-05-13T04:03:01.296Z,592
2018-05-13T04:04:10.156Z,612
2018-05-13T04:05:19.022Z,628
2018-05-13T04:06:27.879Z,644
2018-05-13T04:07:36.740Z,660
2018-05-13T04:08:45.952Z,672
2018-05-13T04:09:54.812Z,688
2018-05-13T04:11:03.676Z,708
2018-05-13T04:12:12.534Z,732
2018-05-13T04:13:21.397Z,756
2018-05-13T04:14:30.258Z,776
2018-05-13T04:15:39.399Z,800
2018-05-13T04:16:48.538Z,820
2018-05-13T04:17:57.396Z,840
2018-05-13T04:19:06.260Z,860
2018-05-13T04:20:15.272Z,884
2018-05-13T04:21:24.412Z,908
2018-05-13T04:22:33.272Z,932
2018-05-13T04:23:42.136Z,956
2018-05-13T04:24:51.286Z,980
2018-05-13T04:26:00.252Z,1004
2018-05-13T04:27:09.114Z,1024
2018-05-13T04:28:17.976Z,1048
2018-05-13T04:29:27.152Z,1076
2018-05-13T04:30:36.291Z,1108
2018-05-13T04:31:45.501Z,1136
2018-05-13T04:32:54.644Z,1172
2018-05-13T04:34:03.509Z,1204
2018-05-13T04:35:12.370Z,1240
2018-05-13T04:36:21.233Z,1272
2018-05-13T04:37:30.380Z,1304
2018-05-13T04:38:39.520Z,1344
2018-05-13T04:39:48.658Z,1380
2018-05-13T04:40:57.518Z,1424
2018-05-13T04:42:06.690Z,1460
2018-05-13T04:43:16.169Z,1500
2018-05-13T04:44:25.030Z,1536
2018-05-13T04:45:34.180Z,1576
2018-05-13T04:46:43.029Z,1608
2018-05-13T04:47:51.891Z,1644
2018-05-13T04:49:00.854Z,1684
2018-05-13T04:50:09.715Z,1720
2018-05-13T04:51:18.578Z,1752
2018-05-13T04:52:27.441Z,1788
2018-05-13T04:53:36.304Z,1828
2018-05-13T04:54:45.310Z,1856
2018-05-13T04:55:54.173Z,1892
2018-05-13T04:57:03.319Z,1920
2018-05-13T04:58:12.461Z,1944
2018-05-13T04:59:21.322Z,1976
2018-05-13T05:00:30.282Z,2012
2018-05-13T05:01:39.149Z,2040
2018-05-13T05:02:48.288Z,2068
2018-05-13T05:03:57.149Z,2088
2018-05-13T05:05:06.012Z,2108
2018-05-13T05:06:15.024Z,2128
2018-05-13T05:07:23.883Z,2144
2018-05-13T05:08:32.745Z,2168
2018-05-13T05:09:41.897Z,2188
2018-05-13T05:10:51.036Z,2208
2018-05-13T05:12:00.059Z,2232
2018-05-13T05:13:09.197Z,2256
2018-05-13T05:14:18.054Z,2280
2018-05-13T05:15:27.198Z,2300
2018-05-13T05:16:36.061Z,2324
2018-05-13T05:17:45.200Z,2348
2018-05-13T05:18:54.341Z,2372
2018-05-13T05:20:03.482Z,2396
2018-05-13T05:21:12.344Z,2420
2018-05-13T05:22:21.207Z,2448
2018-05-13T05:23:30.420Z,2468
2018-05-13T05:24:39.283Z,2480
2018-05-13T05:25:48.144Z,2500
2018-05-13T05:26:57.280Z,2524
2018-05-13T05:28:06.150Z,2544
2018-05-13T05:29:15.164Z,2560
2018-05-13T05:30:24.302Z,2588
2018-05-13T05:31:33.450Z,2608
2018-05-13T05:32:42.602Z,2632
2018-05-13T05:33:51.466Z,2656
2018-05-13T05:35:00.325Z,2684
2018-05-13T05:36:09.189Z,2704
2018-05-13T05:37:18.340Z,2736
2018-05-13T05:38:27.202Z,2760
2018-05-13T05:39:36.063Z,2776
2018-05-13T05:40:45.659Z,2800
2018-05-13T05:41:54.800Z,2816
2018-05-13T05:43:03.940Z,2816
2018-05-13T05:44:12.805Z,2824
2018-05-13T05:45:21.668Z,2828
2018-05-13T05:46:30.527Z,2832
2018-05-13T05:47:39.390Z,2828
2018-05-13T05:48:48.532Z,2816
2018-05-13T05:49:57.394Z,2800
2018-05-13T05:51:06.256Z,2792
2018-05-13T05:52:15.398Z,2772
2018-05-13T05:53:24.270Z,2780
2018-05-13T05:54:33.419Z,2772
2018-05-13T05:55:42.280Z,2756
2018-05-13T05:56:51.141Z,2744
2018-05-13T05:58:00.053Z,2732
2018-05-13T05:59:08.916Z,2712
2018-05-13T06:00:17.776Z,2704
2018-05-13T06:01:26.638Z,2704
2018-05-13T06:02:35.496Z,2704
2018-05-13T06:03:44.988Z,2696
2018-05-13T06:04:53.852Z,2688
2018-05-13T06:06:03.000Z,2684
2018-05-13T06:07:11.863Z,2672
2018-05-13T06:08:20.737Z,2668
2018-05-13T06:09:30.026Z,2652
2018-05-13T06:10:39.165Z,2636
2018-05-13T06:11:48.027Z,2624
2018-05-13T06:12:56.888Z,2600
2018-05-13T06:14:05.748Z,2592
2018-05-13T06:15:14.659Z,2588
2018-05-13T06:16:23.521Z,2568
2018-05-13T06:17:32.381Z,2576
2018-05-13T06:18:41.518Z,2564
2018-05-13T06:19:50.380Z,2556
2018-05-13T06:20:59.292Z,2544
2018-05-13T06:22:08.153Z,2532
2018-05-13T06:23:17.298Z,2520
2018-05-13T06:24:26.155Z,2504
2018-05-13T06:25:35.017Z,2504
2018-05-13T06:26:44.210Z,2480
2018-05-13T06:27:53.349Z,2472
2018-05-13T06:29:02.489Z,2468
2018-05-13T06:30:11.351Z,2452
2018-05-13T06:31:20.495Z,2412
2018-05-13T06:32:29.508Z,2412
2018-05-13T06:33:38.376Z,2400
2018-05-13T06:34:47.515Z,2376
2018-05-13T06:35:56.376Z,2368
2018-05-13T06:37:05.520Z,2364
2018-05-13T06:38:14.731Z,2360
2018-05-13T06:39:23.880Z,2328
2018-05-13T06:40:32.798Z,2340
2018-05-13T06:41:41.939Z,2332
2018-05-13T06:42:51.080Z,2320
2018-05-13T06:44:00.268Z,2324
2018-05-13T06:45:09.201Z,2316
2018-05-13T06:46:17.987Z,2328
2018-05-13T06:47:26.850Z,2332
2018-05-13T06:48:35.718Z,2340
2018-05-13T06:49:44.626Z,2332
2018-05-13T06:50:53.844Z,2340
2018-05-13T06:52:02.983Z,2348
2018-05-13T06:53:11.842Z,2352
2018-05-13T06:54:20.708Z,2364
2018-05-13T06:55:29.573Z,2376
2018-05-13T06:56:38.438Z,2380
2018-05-13T06:57:47.351Z,2396
2018-05-13T06:58:56.212Z,2408
2018-05-13T07:00:05.082Z,2404
2018-05-13T07:01:14.286Z,2416
2018-05-13T07:02:23.149Z,2416
2018-05-13T07:03:32.010Z,2412
2018-05-13T07:04:40.871Z,2412
2018-05-13T07:05:49.733Z,2416
2018-05-13T07:06:59.048Z,2412
2018-05-13T07:08:07.912Z,2400
2018-05-13T07:09:16.774Z,2396
2018-05-13T07:10:25.690Z,2404
2018-05-13T07:11:34.945Z,2404
2018-05-13T07:12:43.907Z,2384
2018-05-13T07:13:52.769Z,2368
2018-05-13T07:15:01.628Z,2356
2018-05-13T07:16:10.492Z,2352
2018-05-13T07:17:19.355Z,2304
2018-05-13T07:18:28.567Z,2284
2018-05-13T07:19:37.424Z,2276
2018-05-13T07:20:46.579Z,2328
2018-05-13T07:21:55.442Z,2352
2018-05-13T07:23:04.303Z,2384
2018-05-13T07:24:13.442Z,2404
2018-05-13T07:25:22.307Z,2440
2018-05-13T07:26:31.168Z,2468
2018-05-13T07:27:40.024Z,2492
2018-05-13T07:28:48.889Z,2504
2018-05-13T07:29:57.751Z,2512
2018-05-13T07:31:07.174Z,2512
2018-05-13T07:32:16.037Z,2516
2018-05-13T07:33:24.899Z,2532
2018-05-13T07:34:33.762Z,2568
2018-05-13T07:35:42.775Z,2576
2018-05-13T07:36:51.636Z,2564
2018-05-13T07:38:00.501Z,2572
2018-05-13T07:39:09.361Z,2560
2018-05-13T07:40:18.226Z,2548
2018-05-13T07:41:27.439Z,2544
2018-05-13T07:42:36.301Z,2544
2018-05-13T07:43:45.166Z,2532
2018-05-13T07:44:54.310Z,2540
2018-05-13T07:46:03.450Z,2552
2018-05-13T07:47:12.310Z,2552
2018-05-13T07:48:21.175Z,2556
2018-05-13T07:49:30.032Z,2564
2018-05-13T07:50:39.173Z,2596
2018-05-13T07:51:48.036Z,2612
2018-05-13T07:52:57.047Z,2632
2018-05-13T07:54:05.912Z,2660
2018-05-13T07:55:14.777Z,2684
2018-05-13T07:56:23.641Z,2720
2018-05-13T07:57:32.502Z,2712
2018-05-13T07:58:41.515Z,2732
2018-05-13T07:59:50.655Z,2744
2018-05-13T08:00:59.519Z,2768
2018-05-13T08:02:08.383Z,2796
2018-05-13T08:03:17.250Z,2812
2018-05-13T08:04:26.108Z,2840
2018-05-13T08:05:35.250Z,2860
2018-05-13T08:06:44.115Z,2880
2018-05-13T08:07:53.256Z,2904
2018-05-13T08:09:02.121Z,2920
2018-05-13T08:10:11.436Z,2940
2018-05-13T08:11:20.866Z,2964
2018-05-13T08:12:30.007Z,3012
2018-05-13T08:13:39.144Z,3036
2018-05-13T08:14:48.007Z,3084
2018-05-13T08:15:57.255Z,3104
2018-05-13T08:17:06.113Z,3136
2018-05-13T08:18:14.979Z,3168
2018-05-13T08:19:23.842Z,3184
2018-05-13T08:20:33.680Z,3168
2018-05-13T08:21:43.087Z,3216
2018-05-13T08:22:51.948Z,3260
2018-05-13T08:24:00.817Z,3292
2018-05-13T08:25:09.682Z,3324
2018-05-13T08:26:18.548Z,3368
2018-05-13T08:27:27.838Z,3396
2018-05-13T08:28:36.978Z,3412
2018-05-13T08:29:45.843Z,3364
2018-05-13T08:30:54.707Z,3404
2018-05-13T08:32:03.568Z,3456
2018-05-13T08:33:12.711Z,3504
2018-05-13T08:34:21.848Z,3552
2018-05-13T08:35:30.990Z,3568
2018-05-13T08:36:39.855Z,3536
2018-05-13T08:37:48.726Z,3512
2018-05-13T08:38:57.734Z,3508
2018-05-13T08:40:06.597Z,3488
2018-05-13T08:41:15.740Z,3472
2018-05-13T08:42:24.602Z,3464
2018-05-13T08:43:33.467Z,3472
2018-05-13T08:44:42.681Z,3460
2018-05-13T08:45:51.549Z,3432
2018-05-13T08:47:00.412Z,3428
2018-05-13T08:48:09.277Z,3440
2018-05-13T08:49:18.426Z,3492
2018-05-13T08:50:27.674Z,3560
2018-05-13T08:51:36.538Z,3592
2018-05-13T08:52:45.687Z,3636
2018-05-13T08:53:54.636Z,3652
2018-05-13T08:55:04.063Z,3668
2018-05-13T08:56:13.080Z,3652
2018-05-13T08:57:21.941Z,3632
2018-05-13T08:58:30.804Z,3656
2018-05-13T08:59:39.697Z,3636
2018-05-13T09:00:48.544Z,3620
2018-05-13T09:01:57.758Z,3652
2018-05-13T09:03:06.623Z,3724
2018-05-13T09:04:15.488Z,3748
2018-05-13T09:05:24.353Z,3776
2018-05-13T09:06:33.217Z,3796
2018-05-13T09:07:42.132Z,3832
2018-05-13T09:08:50.997Z,3852
2018-05-13T09:10:00.148Z,3852
2018-05-13T09:11:09.294Z,3844
2018-05-13T09:12:18.437Z,3844
2018-05-13T09:13:27.299Z,3884
2018-05-13T09:14:36.440Z,3868
2018-05-13T09:15:45.305Z,3916
2018-05-13T09:16:54.172Z,3892
2018-05-13T09:18:03.039Z,3896
2018-05-13T09:19:12.257Z,3920
2018-05-13T09:20:21.121Z,3940
2018-05-13T09:21:29.987Z,3948
2018-05-13T09:22:38.854Z,3964
2018-05-13T09:23:47.718Z,3988
2018-05-13T09:24:56.963Z,4012
2018-05-13T09:26:06.106Z,4020
2018-05-13T09:27:14.973Z,4060
2018-05-13T09:28:24.391Z,4092
2018-05-13T09:29:33.268Z,4192
2018-05-13T09:30:42.237Z,4180
2018-05-13T09:31:51.105Z,4156
2018-05-13T09:33:00.287Z,4092
2018-05-13T09:34:09.137Z,4356
2018-05-13T09:35:18.005Z,4576
2018-05-13T09:36:27.025Z,4656
2018-05-13T09:37:36.168Z,4524
2018-05-13T09:38:45.037Z,4484
2018-05-13T09:39:53.899Z,4416
2018-05-13T09:41:02.769Z,4648
2018-05-13T09:42:12.232Z,4996
2018-05-13T09:43:21.099Z,5228
2018-05-13T09:44:30.243Z,5068
2018-05-13T09:45:39.665Z,4888
2018-05-13T09:46:49.465Z,4808
2018-05-13T09:47:58.438Z,5124
2018-05-13T09:49:07.869Z,5804
2018-05-13T09:50:16.735Z,6176
2018-05-13T09:51:25.603Z,6072
2018-05-13T09:52:34.750Z,5984
2018-05-13T09:53:43.946Z,6344
2018-05-13T09:54:52.811Z,6832
2018-05-13T09:56:01.676Z,7028
2018-05-13T09:57:10.820Z,6836
2018-05-13T09:58:19.689Z,6184
2018-05-13T09:59:28.557Z,5592
2018-05-13T10:00:37.425Z,5340
2018-05-13T10:01:46.571Z,5248
2018-05-13T10:02:55.436Z,5236
2018-05-13T10:04:04.593Z,5244
2018-05-13T10:05:14.092Z,5160
2018-05-13T10:06:22.962Z,5100
2018-05-13T10:07:31.828Z,5176
2018-05-13T10:08:40.692Z,5164
2018-05-13T10:09:49.558Z,5096
2018-05-13T10:10:58.428Z,5056
2018-05-13T10:12:07.287Z,5116
2018-05-13T10:13:16.156Z,5300
2018-05-13T10:14:25.023Z,5364
2018-05-13T10:15:33.888Z,5256
2018-05-13T10:16:42.904Z,5212
2018-05-13T10:17:52.048Z,5400
2018-05-13T10:19:00.913Z,5512
2018-05-13T10:20:10.071Z,5472
2018-05-13T10:21:18.925Z,5512
2018-05-13T10:22:28.397Z,5648
2018-05-13T10:23:37.262Z,5672
2018-05-13T10:24:46.127Z,5564
2018-05-13T10:25:54.991Z,5540
2018-05-13T10:27:03.861Z,5688
2018-05-13T10:28:13.055Z,5700
2018-05-13T10:29:21.920Z,5668
2018-05-13T10:30:30.785Z,5740
2018-05-13T10:31:39.652Z,5804
2018-05-13T10:32:48.794Z,5800
2018-05-13T10:33:58.216Z,5680
2018-05-13T10:35:07.082Z,5628
2018-05-13T10:36:15.999Z,5680
2018-05-13T10:37:24.816Z,5780
2018-05-13T10:38:33.685Z,5872
2018-05-13T10:39:42.562Z,6120
2018-05-13T10:40:51.702Z,6544
2018-05-13T10:42:00.568Z,6740
2018-05-13T10:43:09.434Z,7000
2018-05-13T10:44:18.298Z,7828
2018-05-13T10:45:27.320Z,7936
2018-05-13T10:46:36.458Z,7724
2018-05-13T10:47:45.610Z,7856
2018-05-13T10:48:54.754Z,7976
2018-05-13T10:50:03.623Z,7920
2018-05-13T10:51:12.590Z,7924
2018-05-13T10:52:21.732Z,7908
2018-05-13T10:53:30.600Z,8016
2018-05-13T10:54:39.466Z,8372
2018-05-13T10:55:48.629Z,8372
2018-05-13T10:56:57.778Z,8244
2018-05-13T10:58:06.921Z,8380
2018-05-13T10:59:15.787Z,8552
2018-05-13T11:00:24.655Z,8512
2018-05-13T11:01:33.523Z,8472
2018-05-13T11:02:42.438Z,7836
2018-05-13T11:03:51.304Z,7908
2018-05-13T11:05:00.172Z,8324
2018-05-13T11:06:09.040Z,8588
2018-05-13T11:07:17.907Z,8856
2018-05-13T11:08:26.925Z,9224
2018-05-13T11:09:35.793Z,9580
2018-05-13T11:10:44.673Z,10440
2018-05-13T11:11:53.545Z,10720
2018-05-13T11:13:02.413Z,10220
2018-05-13T11:14:11.568Z,9516
2018-05-13T11:15:20.436Z,9124
2018-05-13T11:16:29.304Z,8740
2018-05-13T11:17:38.173Z,9084
2018-05-13T11:18:47.041Z,9504
2018-05-13T11:19:56.063Z,10240
2018-05-13T11:21:05.217Z,9852
2018-05-13T11:22:14.087Z,9984
2018-05-13T11:23:22.955Z,10204
2018-05-13T11:24:31.821Z,9492
2018-05-13T11:25:40.689Z,9312
2018-05-13T11:26:49.659Z,10216
2018-05-13T11:27:58.816Z,10652
2018-05-13T11:29:07.688Z,10084
2018-05-13T11:30:16.562Z,9588
2018-05-13T11:31:25.575Z,9620
2018-05-13T11:32:34.492Z,9972
2018-05-13T11:33:43.441Z,9860
2018-05-13T11:34:52.226Z,11948
2018-05-13T11:36:01.095Z,13424
2018-05-13T11:37:09.963Z,9900
2018-05-13T11:38:18.833Z,7192
2018-05-13T11:39:27.700Z,9052
2018-05-13T11:40:36.645Z,10308
2018-05-13T11:41:45.432Z,11244
2018-05-13T11:42:54.359Z,12504
2018-05-13T11:44:03.514Z,15656
2018-05-13T11:45:12.668Z,16512
2018-05-13T11:46:22.087Z,17632
2018-05-13T11:47:30.956Z,17600
2018-05-13T11:48:39.825Z,15732
2018-05-13T11:49:48.702Z,11544
2018-05-13T11:50:57.567Z,11172
2018-05-13T11:52:06.439Z,10716
2018-05-13T11:53:15.313Z,49568
2018-05-13T11:54:24.337Z,63712
2018-05-13T11:55:33.200Z,11252
2018-05-13T11:56:42.493Z,27008
2018-05-13T11:57:51.365Z,68224
2018-05-13T11:59:00.237Z,61120
2018-05-13T12:00:09.390Z,62048
2018-05-13T12:01:18.614Z,66336
2018-05-13T12:02:27.577Z,61376
2018-05-13T12:03:36.663Z,68000
2018-05-13T12:04:45.520Z,65472
2018-05-13T12:05:55.023Z,67488
2018-05-13T12:07:03.895Z,67648
2018-05-13T12:08:13.041Z,69088
2018-05-13T12:09:22.191Z,71232
2018-05-13T12:10:31.065Z,73696
2018-05-13T12:11:40.086Z,75968
2018-05-13T12:12:49.524Z,73856
2018-05-13T12:13:58.399Z,70176
2018-05-13T12:15:07.277Z,70208
2018-05-13T12:16:16.723Z,68832
2018-05-13T12:17:25.926Z,68832
2018-05-13T12:18:34.801Z,67296
2018-05-13T12:19:43.681Z,66240
2018-05-13T12:20:52.550Z,67584
2018-05-13T12:22:01.429Z,59552
2018-05-13T12:23:10.453Z,63520
2018-05-13T12:24:19.608Z,63104
2018-05-13T12:25:28.481Z,69504
2018-05-13T12:26:37.357Z,70016
2018-05-13T12:27:46.237Z,70944
2018-05-13T12:28:55.597Z,71584
2018-05-13T12:30:04.779Z,66304
2018-05-13T12:31:13.657Z,68288
2018-05-13T12:32:22.537Z,71744
2018-05-13T12:33:31.410Z,69856
2018-05-13T12:34:40.284Z,69952
2018-05-13T12:35:49.163Z,75840
2018-05-13T12:36:58.039Z,72288
2018-05-13T12:38:06.968Z,72480
2018-05-13T12:39:15.799Z,58720
2018-05-13T12:40:24.825Z,76288
2018-05-13T12:41:33.704Z,24896
2018-05-13T12:42:42.577Z,78432
2018-05-13T12:43:51.744Z,74528
2018-05-13T12:45:00.621Z,13896
2018-05-13T12:46:09.879Z,11620
2018-05-13T12:47:18.758Z,12416
2018-05-13T12:48:27.635Z,13724
2018-05-13T12:49:36.788Z,12960
2018-05-13T12:50:45.665Z,11076
2018-05-13T12:51:54.544Z,10484
2018-05-13T12:53:03.696Z,51872
2018-05-13T12:54:12.572Z,54368
2018-05-13T12:55:21.446Z,33760
2018-05-13T12:56:30.600Z,12836
2018-05-13T12:57:39.466Z,57600
2018-05-13T12:58:48.342Z,51584
2018-05-13T12:59:57.222Z,50080
2018-05-13T13:01:06.090Z,54016
2018-05-13T13:02:14.972Z,49152
2018-05-13T13:03:23.997Z,63136
2018-05-13T13:04:32.873Z,75712
2018-05-13T13:05:41.753Z,74272
2018-05-13T13:06:50.631Z,71040
2018-05-13T13:07:59.792Z,68960
2018-05-13T13:09:09.065Z,60384
2018-05-13T13:10:17.880Z,27456
2018-05-13T13:11:26.758Z,35936
2018-05-13T13:12:35.637Z,15972
2018-05-13T13:13:45.079Z,12560
2018-05-13T13:14:54.333Z,35904
2018-05-13T13:16:03.488Z,67008
2018-05-13T13:17:12.639Z,59840
2018-05-13T13:18:21.796Z,65024
2018-05-13T13:19:30.949Z,66464
2018-05-13T13:20:40.258Z,72768
2018-05-13T13:21:49.423Z,73856
2018-05-13T13:22:58.300Z,76864
2018-05-13T13:24:07.177Z,74048
2018-05-13T13:25:16.085Z,70592
2018-05-13T13:26:25.037Z,65504
2018-05-13T13:27:34.191Z,75328
2018-05-13T13:28:43.072Z,72000
2018-05-13T13:29:51.952Z,71104
2018-05-13T13:31:01.388Z,39232
2018-05-13T13:32:10.601Z,13032
2018-05-13T13:33:19.479Z,70112
2018-05-13T13:34:28.640Z,74720
2018-05-13T13:35:37.517Z,73600
2018-05-13T13:36:47.146Z,74624
2018-05-13T13:37:56.025Z,73600
2018-05-13T13:39:04.903Z,72928
2018-05-13T13:40:13.784Z,76064
2018-05-13T13:41:22.665Z,74944
2018-05-13T13:42:31.541Z,75136
2018-05-13T13:43:40.520Z,77792
2018-05-13T13:44:49.401Z,78240
2018-05-13T13:45:58.281Z,71552
2018-05-13T13:47:07.160Z,63104
2018-05-13T13:48:16.039Z,59104
2018-05-13T13:49:24.921Z,60128
2018-05-13T13:50:33.799Z,65728
2018-05-13T13:51:42.964Z,73952
2018-05-13T13:52:52.407Z,74752
2018-05-13T13:54:01.569Z,67328
2018-05-13T13:55:10.571Z,71136
2018-05-13T13:56:19.455Z,76736
2018-05-13T13:57:28.337Z,49216
2018-05-13T13:58:37.219Z,72576
2018-05-13T13:59:46.102Z,73152
2018-05-13T14:00:54.983Z,15964
2018-05-13T14:02:04.141Z,72896
2018-05-13T14:03:13.022Z,72096
2018-05-13T14:04:21.902Z,73568
2018-05-13T14:05:30.784Z,78144
2018-05-13T14:06:39.866Z,76992
2018-05-13T14:07:48.747Z,71872
2018-05-13T14:08:57.630Z,67968
2018-05-13T14:10:06.512Z,65888
2018-05-13T14:11:15.396Z,65024
2018-05-13T14:12:24.329Z,68352
2018-05-13T14:13:33.492Z,67744
2018-05-13T14:14:42.655Z,72064
2018-05-13T14:15:51.537Z,67136
2018-05-13T14:17:00.696Z,59296
2018-05-13T14:18:09.729Z,55424
2018-05-13T14:19:18.891Z,67968
2018-05-13T14:20:27.816Z,56192
2018-05-13T14:21:36.657Z,57248
2018-05-13T14:22:45.540Z,64736
2018-05-13T14:23:54.931Z,67136
2018-05-13T14:25:03.782Z,59872
2018-05-13T14:26:12.664Z,16480
2018-05-13T14:27:21.545Z,51808
2018-05-13T14:28:30.428Z,45984
2018-05-13T14:29:39.359Z,48800
2018-05-13T14:30:48.244Z,65120
2018-05-13T14:31:57.123Z,66304
2018-05-13T14:33:06.046Z,52320
2018-05-13T14:34:15.160Z,9916
2018-05-13T14:35:24.041Z,23264
2018-05-13T14:36:33.264Z,8924
2018-05-13T14:37:42.141Z,8768
2018-05-13T14:38:51.020Z,10612
2018-05-13T14:39:59.902Z,13340
2018-05-13T14:41:10.201Z,39680
2018-05-13T14:42:19.960Z,60448
2018-05-13T14:43:29.124Z,59520
2018-05-13T14:44:39.428Z,20608
2018-05-13T14:45:48.529Z,46304
2018-05-13T14:46:59.261Z,69056
2018-05-13T14:48:09.471Z,67840
2018-05-13T14:49:21.050Z,25248
2018-05-13T14:50:31.750Z,8384
2018-05-13T14:51:41.838Z,6924
2018-05-13T14:52:51.165Z,7476
2018-05-13T14:54:00.042Z,11288
2018-05-13T14:55:08.920Z,7168
2018-05-13T14:56:18.993Z,7736
2018-05-13T14:57:28.625Z,8552
2018-05-13T14:58:38.081Z,9588
2018-05-13T14:59:48.070Z,23872
2018-05-13T15:00:57.871Z,8968
2018-05-13T15:02:08.014Z,8504
2018-05-13T15:03:18.761Z,9120
2018-05-13T15:04:29.078Z,10124
2018-05-13T15:05:38.862Z,11012
2018-05-13T15:06:48.086Z,49376
2018-05-13T15:07:57.342Z,44224
2018-05-13T15:09:06.773Z,58208
2018-05-13T15:10:15.839Z,51808
2018-05-13T15:11:24.948Z,9356
2018-05-13T15:12:33.830Z,7308
2018-05-13T15:13:42.702Z,7708
2018-05-13T15:14:51.578Z,10108
2018-05-13T15:16:00.880Z,35808
2018-05-13T15:17:10.033Z,48640
2018-05-13T15:18:18.904Z,53472
2018-05-13T15:19:27.776Z,32992
2018-05-13T15:20:36.650Z,18880
2018-05-13T15:21:45.572Z,29280
2018-05-13T15:22:54.815Z,13200
2018-05-13T15:24:04.499Z,11008
2018-05-13T15:25:14.353Z,18656
2018-05-13T15:26:23.702Z,29632
2018-05-13T15:27:34.242Z,6728
2018-05-13T15:28:44.064Z,5296
2018-05-13T15:29:54.442Z,4436
2018-05-13T15:31:04.397Z,4084
2018-05-13T15:32:13.530Z,8520
2018-05-13T15:33:22.503Z,7108